createdAt,value
2022-12-12T00:00:48.040Z,22.90
2022-12-12T00:11:01.770Z,14.80
2022-12-12T00:21:11.887Z,18.90
2022-12-12T00:31:15.772Z,18.00
2022-12-12T00:41:20.495Z,19.20
2022-12-12T00:51:26.290Z,15.80
2022-12-12T01:01:32.003Z,19.30
2022-12-12T01:11:36.036Z,17.10
2022-12-12T01:21:39.626Z,16.60
2022-12-12T01:31:43.307Z,15.00
2022-12-12T01:41:47.509Z,12.20
2022-12-12T01:51:57.406Z,11.90
2022-12-12T02:02:01.573Z,12.00
2022-12-12T02:12:05.726Z,13.90
2022-12-12T02:22:26.758Z,13.50
2022-12-12T02:32:42.637Z,11.80
2022-12-12T02:42:55.945Z,12.70
2022-12-12T02:53:01.045Z,13.30
2022-12-12T03:03:48.467Z,14.30
2022-12-12T03:14:10.133Z,15.30
2022-12-12T03:24:26.687Z,13.30
2022-12-12T03:34:38.540Z,14.80
2022-12-12T03:44:56.140Z,13.20
2022-12-12T03:55:14.681Z,14.00
2022-12-12T04:05:38.343Z,14.10
2022-12-12T04:15:57.668Z,11.30
2022-12-12T04:26:39.669Z,14.20
2022-12-12T04:36:46.412Z,14.50
2022-12-12T04:57:00.461Z,16.40
2022-12-12T05:07:14.276Z,13.70
2022-12-12T05:17:23.994Z,12.60
2022-12-12T05:27:28.156Z,15.60
2022-12-12T05:37:31.779Z,18.30
2022-12-12T05:47:36.018Z,16.20
2022-12-12T05:57:39.732Z,16.00
2022-12-12T06:07:43.631Z,13.70
2022-12-12T06:17:47.378Z,13.20
2022-12-12T06:27:51.636Z,12.80
2022-12-12T06:37:55.253Z,15.80
2022-12-12T06:47:59.045Z,16.00
2022-12-12T06:58:02.785Z,14.40
2022-12-12T07:08:06.477Z,16.80
2022-12-12T07:18:11.091Z,18.10
2022-12-12T07:28:16.134Z,18.10
2022-12-12T07:38:20.031Z,15.50
2022-12-12T07:48:23.702Z,17.70
2022-12-12T07:58:27.761Z,19.00
2022-12-12T08:08:32.113Z,18.50
2022-12-12T08:18:36.018Z,19.20
2022-12-12T08:28:45.861Z,15.30
2022-12-12T08:38:50.675Z,19.80
2022-12-12T08:48:57.874Z,19.60
2022-12-12T08:59:03.088Z,20.20
2022-12-12T09:09:07.407Z,26.70
2022-12-12T09:19:11.472Z,20.60
2022-12-12T09:29:15.659Z,19.20
2022-12-12T09:39:20.293Z,17.40
2022-12-12T09:49:43.770Z,21.00
2022-12-12T09:59:58.076Z,19.90
2022-12-12T10:10:40.308Z,19.50
2022-12-12T10:20:57.030Z,18.50
2022-12-12T10:31:09.276Z,22.40
2022-12-12T10:41:39.779Z,19.50
2022-12-12T10:51:47.400Z,20.10
2022-12-12T11:02:15.433Z,19.10
2022-12-12T11:12:21.348Z,20.80
2022-12-12T11:22:26.824Z,19.80
2022-12-12T11:32:54.161Z,19.40
2022-12-12T11:43:26.515Z,18.70
2022-12-12T11:53:41.893Z,21.80
2022-12-12T12:04:01.258Z,20.50
2022-12-12T12:14:23.721Z,23.30
2022-12-12T12:24:57.855Z,17.50
2022-12-12T12:35:33.962Z,19.30
2022-12-12T12:46:13.394Z,20.40
2022-12-12T12:56:28.142Z,18.60
2022-12-12T13:07:12.530Z,17.30
2022-12-12T13:17:24.561Z,18.50
2022-12-12T13:27:48.523Z,15.60
2022-12-12T13:37:55.435Z,18.20
2022-12-12T13:48:03.549Z,16.40
2022-12-12T13:58:19.935Z,17.80
2022-12-12T14:08:32.364Z,18.80
2022-12-12T14:18:53.030Z,16.00
2022-12-12T14:29:16.697Z,18.20
2022-12-12T14:39:47.404Z,19.30
2022-12-12T14:50:09.573Z,25.30
2022-12-12T15:00:19.774Z,29.10
2022-12-12T15:10:29.813Z,20.80
2022-12-12T15:20:34.067Z,22.50
2022-12-12T15:30:40.922Z,18.20
2022-12-12T15:50:58.320Z,16.90
2022-12-12T16:01:21.366Z,25.80
2022-12-12T16:11:44.291Z,19.10
2022-12-12T16:21:50.014Z,19.20
2022-12-12T16:31:56.611Z,17.00
2022-12-12T16:42:01.182Z,14.70
2022-12-12T16:52:05.939Z,27.40
2022-12-12T17:02:27.931Z,23.60
2022-12-12T17:12:32.284Z,26.60
2022-12-12T17:22:36.647Z,30.50
2022-12-12T17:32:42.262Z,32.40
2022-12-12T17:42:46.236Z,32.30
2022-12-12T17:52:51.027Z,38.90
2022-12-12T18:02:56.031Z,30.80
2022-12-12T18:13:02.211Z,30.40
2022-12-12T18:23:07.516Z,34.40
2022-12-12T18:33:12.978Z,41.40
2022-12-12T18:43:20.471Z,51.20
2022-12-12T18:53:25.821Z,39.80
2022-12-12T19:03:32.036Z,40.30
2022-12-12T19:13:37.463Z,40.20
2022-12-12T19:23:44.146Z,44.10
2022-12-12T19:33:55.322Z,44.70
2022-12-12T19:44:03.001Z,33.30
2022-12-12T19:54:22.768Z,30.00
2022-12-12T20:04:33.974Z,36.40
2022-12-12T20:14:40.374Z,39.60
2022-12-12T20:24:46.086Z,38.50
2022-12-12T20:34:53.087Z,30.90
2022-12-12T20:45:02.321Z,36.60
2022-12-12T20:55:10.701Z,24.30
2022-12-12T21:05:15.993Z,28.70
2022-12-12T21:15:23.137Z,26.00
2022-12-12T21:25:27.501Z,17.50
2022-12-12T21:35:34.253Z,19.40
2022-12-12T21:45:39.598Z,20.30
2022-12-12T21:55:44.368Z,17.70
2022-12-12T22:05:49.101Z,21.30
2022-12-12T22:16:02.608Z,18.30
2022-12-12T22:26:15.057Z,20.00
2022-12-12T22:36:23.969Z,19.60
2022-12-12T22:46:29.019Z,16.30
2022-12-12T22:56:36.210Z,19.60
2022-12-12T23:06:41.046Z,21.00
2022-12-12T23:16:45.131Z,18.90
2022-12-12T23:26:52.218Z,15.20
2022-12-12T23:47:01.506Z,14.70
2022-12-12T23:57:05.608Z,12.80
